Time;durP1;ratioP1;P1;durP2;ratioP2;P2;SDS_P1;SDS_P2;PMS_P1;PMS_P2;Temp;Humidity;BMP_temperature;BMP_pressure;BME280_temperature;BME280_humidity;BME280_pressure;Samples;Min_cycle;Max_cycle;Signal;HPM_P1;HPM_P2
2023/11/09 00:00:09;;;;;;;8.35;6.90;;;;;;;4.88;100.00;93431.31;5084632;28;20075;-78
2023/11/09 00:02:36;;;;;;;9.13;7.70;;;;;;;4.95;100.00;93425.38;5083191;28;20459;-78
2023/11/09 00:05:04;;;;;;;18.33;11.60;;;;;;;4.98;100.00;93426.00;5087036;28;20048;-78
2023/11/09 00:07:32;;;;;;;16.70;11.13;;;;;;;5.02;100.00;93432.34;5087306;28;20048;-78
2023/11/09 00:10:02;;;;;;;15.75;10.77;;;;;;;5.08;100.00;93435.00;5081125;28;20044;-78
2023/11/09 00:12:29;;;;;;;13.77;9.93;;;;;;;5.10;100.00;93442.47;5087405;28;20051;-78
2023/11/09 00:14:57;;;;;;;12.30;9.43;;;;;;;5.14;100.00;93445.47;5085452;28;20108;-77
2023/11/09 00:17:25;;;;;;;12.23;9.07;;;;;;;5.10;100.00;93442.47;5084927;28;20524;-79
2023/11/09 00:19:52;;;;;;;12.43;9.52;;;;;;;5.12;100.00;93439.75;5083509;28;20044;-78
2023/11/09 00:22:20;;;;;;;15.18;10.65;;;;;;;5.19;100.00;93443.97;5078825;28;20501;-78
2023/11/09 00:24:47;;;;;;;15.48;11.05;;;;;;;5.26;100.00;93445.84;5083071;28;20110;-77
2023/11/09 00:27:21;;;;;;;13.38;10.27;;;;;;;5.24;100.00;93433.31;5082914;28;20044;-77
2023/11/09 00:29:48;;;;;;;13.70;10.48;;;;;;;5.24;100.00;93438.41;5082501;28;20044;-78
2023/11/09 00:32:16;;;;;;;11.75;9.65;;;;;;;5.17;100.00;93437.47;5080735;28;20496;-78
2023/11/09 00:34:44;;;;;;;13.43;10.02;;;;;;;5.20;100.00;93434.59;5087097;28;20155;-78
2023/11/09 00:37:11;;;;;;;12.70;8.98;;;;;;;5.25;100.00;93445.06;5078958;28;20051;-78
2023/11/09 00:39:38;;;;;;;10.60;8.75;;;;;;;5.18;100.00;93449.25;5085484;28;20044;-77
2023/11/09 00:42:06;;;;;;;12.95;9.48;;;;;;;5.01;100.00;93425.66;5086605;28;21153;-78
2023/11/09 00:44:33;;;;;;;11.77;8.88;;;;;;;5.11;100.00;93445.78;5082160;28;20395;-78
2023/11/09 00:47:03;;;;;;;17.65;12.00;;;;;;;5.05;100.00;93449.81;5082135;28;20077;-79
2023/11/09 00:49:30;;;;;;;17.23;12.00;;;;;;;4.95;100.00;93450.03;5087280;28;20540;-78
2023/11/09 00:51:58;;;;;;;20.75;13.43;;;;;;;4.84;100.00;93430.84;5081469;28;20048;-78
2023/11/09 00:54:26;;;;;;;17.33;12.07;;;;;;;4.87;100.00;93437.38;5087219;28;20059;-78
2023/11/09 00:56:53;;;;;;;18.40;12.10;;;;;;;4.75;100.00;93436.94;5087127;28;20078;-79
2023/11/09 00:59:20;;;;;;;16.63;11.45;;;;;;;4.54;100.00;93425.63;5083741;28;20543;-79
2023/11/09 01:01:47;;;;;;;15.70;12.18;;;;;;;4.73;100.00;93452.41;5078112;28;20051;-78
2023/11/09 01:04:13;;;;;;;19.58;13.60;;;;;;;4.71;100.00;93451.00;5080983;28;20468;-78
2023/11/09 01:06:40;;;;;;;16.83;12.05;;;;;;;4.70;100.00;93454.47;5079107;28;20054;-78
2023/11/09 01:09:08;;;;;;;14.45;10.60;;;;;;;4.65;100.00;93452.44;5076928;28;20051;-79
2023/11/09 01:11:35;;;;;;;12.70;9.32;;;;;;;4.72;100.00;93455.13;5082671;28;20049;-79
2023/11/09 01:14:02;;;;;;;12.05;8.55;;;;;;;4.63;100.00;93452.59;5079218;28;20052;-80
2023/11/09 01:16:29;;;;;;;8.57;7.57;;;;;;;4.63;100.00;93444.97;5085993;28;20044;-78
2023/11/09 01:18:55;;;;;;;11.57;7.70;;;;;;;4.59;100.00;93450.56;5086904;28;20051;-79
2023/11/09 01:21:22;;;;;;;10.07;7.57;;;;;;;4.34;100.00;93453.19;5080338;28;20052;-77
2023/11/09 01:23:49;;;;;;;11.50;6.78;;;;;;;3.95;100.00;93455.56;5083971;28;20058;-77
2023/11/09 01:26:17;;;;;;;8.20;7.03;;;;;;;3.94;100.00;93460.78;5082055;28;20052;-77
2023/11/09 01:28:44;;;;;;;9.88;7.78;;;;;;;3.74;100.00;93421.28;5086103;28;20052;-77
2023/11/09 01:31:11;;;;;;;9.65;7.63;;;;;;;4.07;100.00;93447.59;5082230;28;20055;-77
2023/11/09 01:33:38;;;;;;;11.68;8.25;;;;;;;4.15;100.00;93445.00;5084135;28;20055;-77
2023/11/09 01:36:05;;;;;;;11.73;8.57;;;;;;;4.17;100.00;93453.25;5086450;28;20125;-76
2023/11/09 01:38:33;;;;;;;10.80;8.48;;;;;;;4.19;100.00;93453.09;5079587;28;20402;-78
2023/11/09 01:41:05;;;;;;;12.65;9.00;;;;;;;4.27;100.00;93455.63;5083589;28;20044;-77
2023/11/09 01:43:34;;;;;;;11.30;8.38;;;;;;;4.20;100.00;93452.13;5081315;28;20055;-76
2023/11/09 01:46:01;;;;;;;8.27;7.10;;;;;;;4.24;100.00;93466.09;5081401;28;21040;-76
2023/11/09 01:48:28;;;;;;;13.50;9.85;;;;;;;4.27;100.00;93464.03;5086278;28;20055;-76
2023/11/09 01:50:54;;;;;;;11.95;8.85;;;;;;;4.38;100.00;93472.25;5086036;28;20059;-76
2023/11/09 01:53:21;;;;;;;11.23;8.52;;;;;;;4.28;100.00;93457.19;5079337;28;20059;-76
2023/11/09 01:55:49;;;;;;;11.40;8.48;;;;;;;4.26;100.00;93461.66;5083515;28;20052;-76
2023/11/09 01:58:16;;;;;;;9.85;7.82;;;;;;;4.33;100.00;93472.75;5090028;28;20801;-76
2023/11/09 02:00:46;;;;;;;10.50;7.82;;;;;;;4.16;100.00;93441.50;5089805;28;20047;-76
2023/11/09 02:03:14;;;;;;;11.05;7.78;;;;;;;4.37;100.00;93468.94;5087038;28;20620;-76
2023/11/09 02:05:43;;;;;;;9.27;7.50;;;;;;;4.24;100.00;93455.94;5090164;28;20109;-76
2023/11/09 02:08:10;;;;;;;8.80;6.95;;;;;;;4.19;100.00;93481.88;5088154;28;20048;-76
2023/11/09 02:10:37;;;;;;;10.13;7.30;;;;;;;4.30;100.00;93478.16;5084944;28;20393;-76
2023/11/09 02:13:04;;;;;;;13.13;8.15;;;;;;;4.30;100.00;93473.06;5088192;28;20048;-77
2023/11/09 02:15:31;;;;;;;10.45;7.70;;;;;;;4.23;100.00;93467.88;5086608;28;20051;-80
2023/11/09 02:18:00;;;;;;;8.60;7.15;;;;;;;4.14;100.00;93479.00;5089097;28;20497;-78
2023/11/09 02:20:28;;;;;;;8.68;6.97;;;;;;;4.18;100.00;93482.03;5084080;28;20078;-78
2023/11/09 02:22:57;;;;;;;8.57;6.40;;;;;;;4.14;100.00;93486.66;5084007;28;20064;-79
2023/11/09 02:25:27;;;;;;;9.43;6.72;;;;;;;4.16;100.00;93478.84;5088585;28;20052;-78
2023/11/09 02:27:54;;;;;;;8.40;6.25;;;;;;;4.13;100.00;93474.88;5082753;28;20043;-79
2023/11/09 02:30:22;;;;;;;7.38;6.20;;;;;;;4.16;100.00;93476.31;5089025;28;20501;-80
2023/11/09 02:32:49;;;;;;;7.28;6.38;;;;;;;4.04;100.00;93463.94;5088794;28;20180;-80
2023/11/09 02:35:16;;;;;;;15.38;10.10;;;;;;;4.16;100.00;93494.88;5089069;28;20047;-79
2023/11/09 02:37:43;;;;;;;14.63;10.27;;;;;;;4.12;100.00;93504.59;5083427;28;20055;-78
2023/11/09 02:40:10;;;;;;;13.57;10.13;;;;;;;4.12;100.00;93506.38;5085155;28;20048;-78
2023/11/09 02:42:39;;;;;;;13.40;9.60;;;;;;;4.12;100.00;93498.72;5082867;28;20505;-78
2023/11/09 02:45:06;;;;;;;12.60;8.88;;;;;;;4.11;100.00;93495.38;5085869;28;20056;-78
2023/11/09 02:47:33;;;;;;;12.82;8.63;;;;;;;4.08;100.00;93495.69;5085616;28;20044;-78
2023/11/09 02:50:02;;;;;;;12.18;8.27;;;;;;;4.04;100.00;93483.50;5079795;28;20048;-78
2023/11/09 02:52:29;;;;;;;14.95;9.27;;;;;;;4.05;100.00;93493.50;5083768;28;20413;-78
2023/11/09 02:54:59;;;;;;;11.75;8.02;;;;;;;4.07;100.00;93498.44;5086118;28;20071;-82
2023/11/09 02:57:26;;;;;;;13.13;8.63;;;;;;;3.83;100.00;93469.53;5083255;28;20036;-82
2023/11/09 02:59:55;;;;;;;13.52;8.85;;;;;;;3.84;100.00;93482.09;5086707;28;20055;-78
2023/11/09 03:02:22;;;;;;;13.30;8.45;;;;;;;3.96;100.00;93495.25;5085050;28;20047;-78
2023/11/09 03:04:49;;;;;;;12.93;8.80;;;;;;;4.01;100.00;93492.22;5086138;28;20454;-78
2023/11/09 03:07:16;;;;;;;12.05;8.38;;;;;;;4.08;100.00;93497.47;5085831;28;20036;-77
2023/11/09 03:09:44;;;;;;;12.88;8.73;;;;;;;4.12;100.00;93506.38;5086882;28;20048;-77
2023/11/09 03:12:11;;;;;;;11.98;8.30;;;;;;;4.16;100.00;93499.19;5087668;28;20044;-79
2023/11/09 03:14:39;;;;;;;13.18;8.35;;;;;;;4.18;100.00;93498.09;5083401;28;20186;-79
2023/11/09 03:17:09;;;;;;;12.48;7.82;;;;;;;4.11;100.00;93492.03;5085773;28;20452;-78
2023/11/09 03:19:36;;;;;;;13.50;8.93;;;;;;;3.98;100.00;93485.72;5083215;28;20052;-79
2023/11/09 03:22:03;;;;;;;13.55;9.45;;;;;;;4.10;100.00;93506.50;5085096;28;20040;-79
2023/11/09 03:24:33;;;;;;;11.45;9.05;;;;;;;4.11;100.00;93515.72;5085644;28;20490;-79
2023/11/09 03:27:00;;;;;;;13.48;9.80;;;;;;;4.05;100.00;93513.84;5086716;28;20079;-78
2023/11/09 03:29:26;;;;;;;16.50;10.55;;;;;;;3.98;100.00;93513.69;5086914;28;20052;-78
2023/11/09 03:31:53;;;;;;;17.20;10.63;;;;;;;3.92;100.00;93504.16;5085577;28;20401;-79
2023/11/09 03:34:22;;;;;;;16.92;11.02;;;;;;;3.94;100.00;93509.88;5087663;28;20516;-79
2023/11/09 03:36:48;;;;;;;15.70;10.90;;;;;;;3.84;100.00;93511.81;5085513;28;20052;-78
2023/11/09 03:39:15;;;;;;;15.20;10.90;;;;;;;3.90;100.00;93506.06;5086262;28;20044;-80
2023/11/09 03:41:46;;;;;;;16.45;11.10;;;;;;;3.86;100.00;93503.06;5082867;28;20048;-79
2023/11/09 03:44:13;;;;;;;13.02;9.68;;;;;;;3.69;100.00;93498.94;5085327;28;20052;-82
2023/11/09 03:46:39;;;;;;;12.60;9.45;;;;;;;3.68;100.00;93505.78;5083920;28;20134;-80
2023/11/09 03:49:07;;;;;;;11.85;8.60;;;;;;;3.63;100.00;93504.66;5082628;28;20059;-80
2023/11/09 03:51:36;;;;;;;12.70;8.98;;;;;;;3.56;100.00;93496.91;5084189;28;20509;-80
2023/11/09 03:54:03;;;;;;;13.88;8.70;;;;;;;3.61;100.00;93509.88;5084699;28;20093;-80
2023/11/09 03:56:30;;;;;;;9.07;7.22;;;;;;;3.51;100.00;93507.50;5084548;28;20123;-80
2023/11/09 03:58:57;;;;;;;8.73;6.18;;;;;;;3.49;100.00;93506.88;5086700;28;20449;-80
2023/11/09 04:01:24;;;;;;;9.48;7.20;;;;;;;3.44;100.00;93511.66;5085129;28;20047;-81
2023/11/09 04:03:51;;;;;;;12.05;7.78;;;;;;;3.53;100.00;93507.34;5087030;28;20807;-80
2023/11/09 04:06:18;;;;;;;8.93;6.80;;;;;;;3.39;100.00;93486.75;5085537;28;20040;-82
2023/11/09 04:08:46;;;;;;;8.45;6.20;;;;;;;3.44;100.00;93501.50;5087300;28;20044;-81
2023/11/09 04:11:13;;;;;;;7.28;5.72;;;;;;;3.23;100.00;93468.94;5085659;28;20051;-81
2023/11/09 04:13:40;;;;;;;7.07;5.60;;;;;;;3.34;100.00;93504.97;5083554;28;20425;-81
2023/11/09 04:16:09;;;;;;;6.35;5.13;;;;;;;3.20;100.00;93508.13;5084649;28;20048;-80
2023/11/09 04:18:37;;;;;;;8.35;7.45;;;;;;;3.19;100.00;93509.06;5084747;28;20188;-80
2023/11/09 04:21:04;;;;;;;7.05;6.22;;;;;;;3.11;100.00;93481.94;5084914;28;20044;-80
2023/11/09 04:23:31;;;;;;;7.65;6.80;;;;;;;3.19;100.00;93506.53;5082692;28;20043;-81
2023/11/09 04:25:59;;;;;;;7.57;6.55;;;;;;;3.11;100.00;93501.44;5084139;28;20044;-80
2023/11/09 04:28:32;;;;;;;7.40;5.95;;;;;;;3.11;100.00;93506.53;5087204;28;20047;-80
2023/11/09 04:31:00;;;;;;;8.98;6.78;;;;;;;3.04;100.00;93504.63;5085463;28;20049;-80
2023/11/09 04:33:27;;;;;;;6.97;6.03;;;;;;;2.89;100.00;93509.50;5085689;28;20056;-80
2023/11/09 04:35:55;;;;;;;10.57;8.85;;;;;;;2.89;100.00;93516.31;5082871;28;20538;-80
2023/11/09 04:38:23;;;;;;;9.63;8.73;;;;;;;2.79;100.00;93501.22;5085707;28;20055;-80
2023/11/09 04:40:55;;;;;;;12.88;8.23;;;;;;;2.91;100.00;93507.59;5081765;28;20106;-80
2023/11/09 04:43:23;;;;;;;10.00;8.93;;;;;;;2.93;100.00;93515.06;5085150;28;20044;-80
2023/11/09 04:46:03;;;;;;;;;;;;;;;;;;;;;
2023/11/09 04:48:44;;;;;;;9.60;8.60;;;;;;;2.59;100.00;93455.81;5079432;28;20134;-80
2023/11/09 04:51:20;;;;;;;11.18;9.63;;;;;;;2.99;100.00;93516.16;5086134;28;20143;-79
2023/11/09 04:53:48;;;;;;;;;;;;;;;2.80;100.00;93472.38;5082168;28;20105;-79
2023/11/09 04:56:32;;;;;;;10.82;8.70;;;;;;;2.95;100.00;93510.63;5086515;28;19927;-79
2023/11/09 04:59:02;;;;;;;12.13;9.60;;;;;;;2.72;100.00;93472.38;5084569;28;20058;-79
2023/11/09 05:06:59;;;;;;;10.23;8.40;;;;;;;2.76;100.00;93520.09;5085367;28;20101;-79
2023/11/09 05:09:27;;;;;;;15.18;10.95;;;;;;;2.62;100.00;93503.72;5086270;28;20113;-79
2023/11/09 05:11:54;;;;;;;14.00;12.52;;;;;;;2.57;100.00;93492.44;5084530;28;20052;-80
2023/11/09 05:14:22;;;;;;;15.13;11.98;;;;;;;2.77;100.00;93521.66;5082393;28;20055;-79
2023/11/09 05:16:49;;;;;;;13.77;11.93;;;;;;;2.80;100.00;93516.31;5084610;28;20528;-79
2023/11/09 05:19:16;;;;;;;14.38;12.23;;;;;;;2.76;100.00;93516.75;5082307;28;20043;-79
2023/11/09 05:21:43;;;;;;;14.82;12.52;;;;;;;2.70;100.00;93525.78;5086232;28;20051;-79
2023/11/09 05:24:11;;;;;;;16.63;13.73;;;;;;;2.66;100.00;93525.28;5086441;28;20130;-79
2023/11/09 05:26:38;;;;;;;18.27;15.15;;;;;;;2.51;100.00;93504.00;5084370;28;20109;-79
2023/11/09 05:29:06;;;;;;;19.88;15.88;;;;;;;2.72;100.00;93534.03;5079568;28;20060;-79
2023/11/09 05:31:36;;;;;;;23.73;20.20;;;;;;;2.80;100.00;93526.44;5083424;28;20056;-79
2023/11/09 05:34:03;;;;;;;15.93;13.48;;;;;;;2.70;100.00;93514.81;5084144;28;20056;-78
2023/11/09 05:36:34;;;;;;;11.32;10.18;;;;;;;2.60;100.00;93512.41;5085381;28;20476;-78
2023/11/09 05:39:01;;;;;;;14.20;9.82;;;;;;;2.66;100.00;93537.16;5083646;28;20086;-78
2023/11/09 05:41:29;;;;;;;10.55;8.10;;;;;;;2.73;100.00;93545.75;5086875;28;20060;-78
2023/11/09 05:43:57;;;;;;;24.52;18.67;;;;;;;2.69;100.00;93534.34;5088605;28;21008;-78
2023/11/09 05:46:24;;;;;;;15.88;13.30;;;;;;;2.68;100.00;93547.94;5098738;28;20080;-78
2023/11/09 05:48:52;;;;;;;11.38;9.43;;;;;;;2.68;100.00;93547.94;5093785;28;20059;-79
2023/11/09 05:51:21;;;;;;;13.88;9.48;;;;;;;2.56;100.00;93531.41;5087133;28;20398;-78
2023/11/09 05:53:48;;;;;;;11.77;9.07;;;;;;;2.65;100.00;93541.44;5091722;28;20079;-78
2023/11/09 05:56:15;;;;;;;14.40;10.68;;;;;;;2.74;100.00;93538.94;5105391;28;20575;-78
2023/11/09 05:58:42;;;;;;;16.60;12.55;;;;;;;2.82;100.00;93545.78;5083201;28;20049;-78
2023/11/09 06:01:10;;;;;;;13.32;10.77;;;;;;;2.84;100.00;93543.88;5091877;28;20431;-79
2023/11/09 06:03:37;;;;;;;11.77;8.75;;;;;;;2.85;100.00;93545.47;5084861;28;20050;-78
2023/11/09 06:06:06;;;;;;;14.18;10.40;;;;;;;2.53;100.00;93500.34;5099258;28;20043;-79
2023/11/09 06:08:34;;;;;;;22.02;15.00;;;;;;;2.84;100.00;93547.22;5105187;28;20048;-78
2023/11/09 06:11:01;;;;;;;28.70;19.52;;;;;;;2.84;100.00;93549.78;5090927;28;20047;-79
2023/11/09 06:13:37;;;;;;;27.67;17.77;;;;;;;1.78;100.00;93390.28;5100729;28;20450;-79
2023/11/09 06:16:05;;;;;;;19.67;14.93;;;;;;;2.88;100.00;93551.03;5104606;28;20148;-78
2023/11/09 06:18:32;;;;;;;13.88;10.93;;;;;;;2.90;100.00;93545.81;5097838;28;20040;-78
2023/11/09 06:21:00;;;;;;;12.20;9.98;;;;;;;3.01;100.00;93545.53;5089501;28;20485;-78
2023/11/09 06:23:29;;;;;;;15.27;11.05;;;;;;;2.98;100.00;93532.34;5086675;28;20044;-79
2023/11/09 06:25:56;;;;;;;11.02;9.77;;;;;;;3.12;100.00;93543.66;5081647;28;20051;-79
2023/11/09 06:28:23;;;;;;;15.63;8.38;;;;;;;3.20;100.00;93554.59;5086249;28;20558;-79
2023/11/09 06:30:51;;;;;;;9.63;7.30;;;;;;;3.27;100.00;93547.19;5085032;28;20072;-79
2023/11/09 06:33:18;;;;;;;9.93;7.70;;;;;;;3.40;100.00;93559.41;5088779;28;20084;-79
2023/11/09 06:35:46;;;;;;;17.95;9.10;;;;;;;3.45;100.00;93548.78;5093891;28;20039;-79
2023/11/09 06:38:13;;;;;;;16.02;9.90;;;;;;;3.55;100.00;93561.31;5093127;28;20104;-79
2023/11/09 06:40:43;;;;;;;14.05;8.38;;;;;;;3.67;100.00;93556.75;5105622;28;20051;-78
2023/11/09 06:43:10;;;;;;;11.52;8.55;;;;;;;3.80;100.00;93553.72;5106853;28;20668;-79
2023/11/09 06:45:37;;;;;;;10.75;8.10;;;;;;;3.84;100.00;93553.25;5091560;28;20058;-79
2023/11/09 06:48:03;;;;;;;8.77;7.47;;;;;;;4.01;100.00;93564.22;5089679;28;20044;-79
2023/11/09 06:50:30;;;;;;;12.40;7.63;;;;;;;4.01;100.00;93563.41;5090066;28;20159;-80
2023/11/09 06:52:57;;;;;;;10.68;7.80;;;;;;;4.18;100.00;93564.19;5092764;28;20040;-80
2023/11/09 06:55:24;;;;;;;10.98;8.50;;;;;;;4.13;100.00;93536.69;5095407;28;20139;-80
2023/11/09 06:57:54;;;;;;;10.32;8.90;;;;;;;4.28;100.00;93551.28;5101919;28;20051;-79
2023/11/09 07:00:23;;;;;;;10.05;8.13;;;;;;;4.53;100.00;93563.94;5093085;28;20290;-80
2023/11/09 07:02:51;;;;;;;11.18;9.13;;;;;;;4.63;100.00;93574.72;5094860;28;20055;-81
2023/11/09 07:05:19;;;;;;;14.48;10.80;;;;;;;4.60;100.00;93567.44;5099712;28;20051;-81
2023/11/09 07:07:47;;;;;;;12.77;9.95;;;;;;;4.80;100.00;93572.94;5086568;28;20093;-81
2023/11/09 07:10:15;;;;;;;15.30;11.25;;;;;;;4.86;100.00;93576.56;5081767;28;20120;-81
2023/11/09 07:12:42;;;;;;;17.48;13.35;;;;;;;4.95;100.00;93573.03;5097835;28;20059;-82
2023/11/09 07:15:11;;;;;;;14.95;12.02;;;;;;;5.10;100.00;93576.63;5090033;28;20048;-82
2023/11/09 07:17:38;;;;;;;15.43;13.20;;;;;;;5.20;100.00;93575.44;5087794;28;20058;-81
2023/11/09 07:20:07;;;;;;;12.65;10.50;;;;;;;5.29;100.00;93583.06;5096113;28;20054;-82
2023/11/09 07:22:34;;;;;;;13.02;10.32;;;;;;;5.40;100.00;93582.69;5088671;28;20139;-81
2023/11/09 07:25:02;;;;;;;26.08;10.68;;;;;;;5.43;100.00;93579.00;5088187;28;20525;-82
2023/11/09 07:27:29;;;;;;;14.63;11.63;;;;;;;5.65;100.00;93582.50;5108225;28;20100;-82
2023/11/09 07:29:56;;;;;;;14.63;11.07;;;;;;;5.79;100.00;93585.31;5108127;28;20492;-81
2023/11/09 07:32:25;;;;;;;15.73;10.75;;;;;;;5.85;100.00;93590.53;5106137;28;20062;-81
2023/11/09 07:34:52;;;;;;;16.70;9.60;;;;;;;5.78;100.00;93565.88;5090117;28;20048;-82
2023/11/09 07:37:18;;;;;;;21.83;12.45;;;;;;;5.94;100.00;93588.69;5083474;28;20051;-82
2023/11/09 07:39:45;;;;;;;21.95;12.43;;;;;;;5.93;100.00;93592.19;5093714;28;20047;-83
2023/11/09 07:42:12;;;;;;;23.50;14.05;;;;;;;6.05;100.00;93592.63;5102162;28;20074;-83
2023/11/09 07:44:39;;;;;;;30.75;16.10;;;;;;;6.19;100.00;93588.53;5093493;28;20052;-82
2023/11/09 07:47:06;;;;;;;32.40;16.88;;;;;;;6.18;100.00;93569.09;5089139;28;20052;-82
2023/11/09 07:49:34;;;;;;;30.33;16.23;;;;;;;6.39;100.00;93588.03;5088726;28;20051;-85
2023/11/09 07:52:03;;;;;;;33.17;16.75;;;;;;;6.48;100.00;93578.53;5083743;28;20063;-84
2023/11/09 07:54:31;;;;;;;30.90;15.55;;;;;;;6.56;100.00;93565.69;5085285;28;20044;-83
2023/11/09 07:56:59;;;;;;;31.92;15.82;;;;;;;6.78;100.00;93579.34;5089778;28;20101;-84
2023/11/09 07:59:26;;;;;;;28.45;16.08;;;;;;;6.86;100.00;93568.25;5089425;28;20079;-83
2023/11/09 08:01:53;;;;;;;27.48;14.98;;;;;;;7.14;100.00;93577.00;5089234;28;20389;-82
2023/11/09 08:04:21;;;;;;;25.67;13.00;;;;;;;7.30;100.00;93579.34;5092785;28;20050;-83
2023/11/09 08:06:50;;;;;;;24.98;13.60;;;;;;;7.44;100.00;93582.03;5088711;28;20048;-83
2023/11/09 08:09:18;;;;;;;23.05;13.23;;;;;;;7.49;100.00;93577.19;5091285;28;20507;-82
2023/11/09 08:11:47;;;;;;;24.00;12.70;;;;;;;7.57;100.00;93589.06;5085643;28;20113;-83
2023/11/09 08:14:14;;;;;;;23.35;13.00;;;;;;;7.63;100.00;93588.34;5084184;28;20055;-83
2023/11/09 08:16:41;;;;;;;23.60;12.80;;;;;;;7.45;100.00;93561.41;5087353;28;20051;-83
2023/11/09 08:19:08;;;;;;;13.18;7.50;;;;;;;7.45;100.00;93596.44;5084941;28;20040;-83
2023/11/09 08:21:36;;;;;;;18.38;9.55;;;;;;;7.48;100.00;93596.06;5087116;28;20058;-83
2023/11/09 08:24:05;;;;;;;18.23;9.82;;;;;;;7.56;100.00;93595.97;5106318;28;20051;-82
2023/11/09 08:26:33;;;;;;;18.08;10.38;;;;;;;7.74;100.00;93602.41;5106647;28;20054;-82
2023/11/09 08:29:00;;;;;;;17.50;8.20;;;;;;;7.57;100.00;93571.16;5103865;28;20051;-82
2023/11/09 08:31:28;;;;;;;17.13;7.95;;;;;;;7.55;100.00;93548.34;5088658;28;20167;-83
2023/11/09 08:33:55;;;;;;;14.20;7.18;;;;;;;7.81;100.00;93587.91;5098253;27;20051;-81
2023/11/09 08:36:22;;;;;;;16.50;5.43;;;;;;;7.84;100.00;93591.88;5088502;28;20509;-83
2023/11/09 08:38:49;;;;;;;18.88;5.75;;;;;;;7.66;100.00;93593.09;5090853;28;20056;-82
2023/11/09 08:41:21;;;;;;;18.65;5.05;;;;;;;7.52;98.68;93574.28;5093284;28;20048;-82
2023/11/09 08:43:48;;;;;;;25.27;7.05;;;;;;;7.57;99.03;93573.72;5080266;28;20573;-81
2023/11/09 08:46:15;;;;;;;21.33;7.10;;;;;;;7.77;100.00;93594.38;5102256;28;20105;-82
2023/11/09 08:48:42;;;;;;;19.15;6.53;;;;;;;7.68;96.11;93593.69;5084336;28;20426;-82
2023/11/09 08:51:13;;;;;;;20.65;7.47;;;;;;;7.61;98.99;93582.63;5086921;28;20056;-82
2023/11/09 08:53:41;;;;;;;18.52;7.57;;;;;;;7.90;100.00;93586.03;5094412;28;20535;-82
2023/11/09 08:56:10;;;;;;;9.73;4.18;;;;;;;7.86;93.38;93600.94;5106118;28;20052;-82
2023/11/09 08:58:39;;;;;;;16.38;5.97;;;;;;;7.91;100.00;93568.94;5106680;28;20064;-83
2023/11/09 09:01:16;;;;;;;14.57;6.07;;;;;;;8.11;93.28;93598.00;5083497;28;20615;-83
2023/11/09 09:03:49;;;;;;;14.13;5.22;;;;;;;8.16;88.54;93598.25;5093587;28;20048;-83
2023/11/09 09:06:17;;;;;;;10.93;5.72;;;;;;;7.97;89.12;93586.09;5081949;28;20056;-81
2023/11/09 09:08:45;;;;;;;17.73;5.60;;;;;;;7.91;95.60;93586.84;5083239;28;20105;-81
2023/11/09 09:11:14;;;;;;;15.23;6.15;;;;;;;7.94;91.78;93576.22;5088950;28;20044;-82
2023/11/09 09:13:42;;;;;;;16.00;5.32;;;;;;;8.05;92.15;93580.06;5084252;28;20089;-82
2023/11/09 09:16:09;;;;;;;12.02;4.50;;;;;;;8.11;93.19;93576.75;5086399;28;20044;-81
2023/11/09 09:18:37;;;;;;;13.18;4.40;;;;;;;8.32;92.46;93581.03;5081654;28;20047;-81
2023/11/09 09:21:08;;;;;;;11.27;4.32;;;;;;;8.37;85.47;93585.59;5085348;28;20058;-82
2023/11/09 09:23:35;;;;;;;13.40;4.85;;;;;;;8.53;87.64;93572.53;5089173;28;20044;-82
2023/11/09 09:26:03;;;;;;;12.82;4.93;;;;;;;8.71;90.52;93567.91;5084640;28;20046;-81
2023/11/09 09:28:30;;;;;;;13.07;3.65;;;;;;;8.76;87.99;93571.50;5088105;28;20040;-82
2023/11/09 09:30:59;;;;;;;13.18;4.68;;;;;;;8.86;89.43;93566.03;5086590;28;20726;-82
2023/11/09 09:33:27;;;;;;;10.57;4.40;;;;;;;8.19;86.76;93448.66;5084486;28;20062;-82
2023/11/09 09:35:56;;;;;;;11.45;4.72;;;;;;;9.05;85.88;93564.53;5089881;28;20044;-82
2023/11/09 09:38:24;;;;;;;8.93;4.00;;;;;;;8.93;86.49;93564.28;5106010;28;20416;-82
2023/11/09 09:40:53;;;;;;;8.27;4.00;;;;;;;8.99;83.46;93565.31;5104684;28;20043;-82
2023/11/09 09:43:22;;;;;;;9.90;3.75;;;;;;;9.16;81.54;93570.88;5081928;28;20120;-82
2023/11/09 09:45:56;;;;;;;10.35;3.50;;;;;;;9.19;79.64;93567.94;5097452;28;20047;-82
2023/11/09 09:48:27;;;;;;;8.27;2.85;;;;;;;9.35;83.99;93564.25;5086441;28;20040;-82
2023/11/09 09:50:55;;;;;;;6.70;3.60;;;;;;;9.60;88.77;93552.66;5086582;28;20130;-82
2023/11/09 09:53:26;;;;;;;8.98;3.00;;;;;;;9.75;83.23;93539.66;5089508;28;20096;-83
2023/11/09 09:55:54;;;;;;;5.70;2.47;;;;;;;9.56;72.50;93564.28;5087794;28;20539;-82
2023/11/09 09:58:21;;;;;;;5.82;2.70;;;;;;;9.30;73.31;93550.44;5085487;28;20128;-81
2023/11/09 10:00:52;;;;;;;6.32;2.83;;;;;;;9.36;74.73;93545.31;5089397;28;20584;-82
2023/11/09 10:03:23;;;;;;;9.05;3.08;;;;;;;9.27;76.66;93523.41;5089612;28;20571;-83
2023/11/09 10:05:51;;;;;;;5.75;3.25;;;;;;;9.55;82.37;93534.50;5087583;28;20052;-82
2023/11/09 10:08:17;;;;;;;6.88;4.07;;;;;;;9.44;75.73;93539.22;5086188;28;20047;-82
2023/11/09 10:10:47;;;;;;;8.60;3.78;;;;;;;9.29;78.93;93490.69;5088417;28;20044;-82
2023/11/09 10:13:15;;;;;;;8.65;3.42;;;;;;;9.48;74.35;93542.19;5082537;28;20127;-82
2023/11/09 10:15:43;;;;;;;7.57;3.05;;;;;;;9.68;71.80;93537.06;5084779;28;20044;-82
2023/11/09 10:18:11;;;;;;;9.25;4.22;;;;;;;9.80;82.70;93521.91;5092315;28;20135;-82
2023/11/09 10:20:38;;;;;;;13.02;4.20;;;;;;;10.08;85.29;93520.91;5096489;28;20055;-83
2023/11/09 10:23:11;;;;;;;8.93;2.78;;;;;;;10.12;70.05;93532.38;5095729;28;20052;-82
2023/11/09 10:25:38;;;;;;;7.43;2.90;;;;;;;10.02;75.83;93525.06;5092683;28;20055;-82
2023/11/09 10:28:07;;;;;;;14.10;3.22;;;;;;;10.22;73.37;93528.59;5090256;28;20047;-82
2023/11/09 10:30:37;;;;;;;11.55;4.07;;;;;;;10.47;78.58;93515.97;5094056;28;20056;-83
2023/11/09 10:33:07;;;;;;;13.63;3.83;;;;;;;10.68;80.55;93512.34;5101763;28;20178;-82
2023/11/09 10:35:34;;;;;;;10.07;3.28;;;;;;;10.56;68.94;93506.25;5096076;28;20067;-83
2023/11/09 10:38:02;;;;;;;10.48;3.28;;;;;;;10.67;82.95;93482.53;5091892;28;20092;-81
2023/11/09 10:40:33;;;;;;;10.40;3.22;;;;;;;11.05;78.89;93508.44;5092787;28;20398;-83
2023/11/09 10:43:01;;;;;;;13.27;4.30;;;;;;;11.18;78.61;93508.41;5091105;28;20059;-83
2023/11/09 10:45:30;;;;;;;10.27;3.35;;;;;;;11.29;79.43;93503.59;5089475;28;20132;-83
2023/11/09 10:47:59;;;;;;;10.40;3.92;;;;;;;10.92;66.24;93499.81;5093895;28;20795;-83
2023/11/09 10:50:28;;;;;;;11.65;4.18;;;;;;;11.08;80.75;93475.41;5091583;28;20052;-83
2023/11/09 10:52:57;;;;;;;9.65;3.38;;;;;;;11.09;66.52;93492.44;5101966;28;20501;-83
2023/11/09 10:55:25;;;;;;;9.85;3.08;;;;;;;11.23;70.59;93506.00;5093599;28;20048;-82
2023/11/09 10:57:54;;;;;;;12.57;3.92;;;;;;;11.12;63.85;93495.56;5086339;28;20040;-82
2023/11/09 11:00:31;;;;;;;11.30;3.58;;;;;;;10.89;62.62;93494.28;5088262;28;20093;-82
2023/11/09 11:03:08;;;;;;;15.95;4.38;;;;;;;11.08;64.68;93505.47;5085706;28;20049;-82
2023/11/09 11:05:40;;;;;;;21.35;7.75;;;;;;;11.01;63.14;93484.94;5090127;28;20097;-82
2023/11/09 11:08:11;;;;;;;12.45;4.45;;;;;;;11.11;61.52;93496.56;5090166;28;20052;-82
2023/11/09 11:10:45;;;;;;;45.13;14.73;;;;;;;11.19;58.12;93499.69;5090343;28;20057;-82
2023/11/09 11:13:17;;;;;;;13.82;4.00;;;;;;;11.10;63.13;93498.34;5090191;28;20050;-82
2023/11/09 11:16:05;;;;;;;32.13;8.80;;;;;;;10.93;62.41;93498.03;5091551;28;20044;-81
2023/11/09 11:18:49;;;;;;;10.27;4.10;;;;;;;11.06;59.76;93492.06;5089931;28;20050;-82
2023/11/09 11:21:35;;;;;;;23.67;8.95;;;;;;;11.12;63.23;93480.94;5090054;28;20053;-82
2023/11/09 11:24:21;;;;;;;12.88;3.95;;;;;;;11.32;60.47;93498.84;5090780;28;20048;-82
2023/11/09 11:26:59;;;;;;;5.78;2.10;;;;;;;11.16;55.26;93500.09;5088741;28;20040;-82
2023/11/09 11:29:28;;;;;;;4.25;1.88;;;;;;;11.18;61.23;93489.59;5090078;28;20494;-83
2023/11/09 11:31:56;;;;;;;6.97;2.95;;;;;;;11.14;57.58;93491.00;5092617;28;20046;-82
2023/11/09 11:34:49;;;;;;;7.05;3.00;;;;;;;11.26;57.57;93484.22;5095505;28;20063;-82
2023/11/09 11:37:22;;;;;;;6.35;2.35;;;;;;;11.23;56.24;93474.34;5087093;28;20044;-82